sensor_id;sensor_type;location;lat;lon;timestamp;P1;durP1;ratioP1;P2;durP2;ratioP2
23123;SDS011;11731;48.592;8.858;2023-04-05T00:00:27;5.03;;;3.63;;
23123;SDS011;11731;48.592;8.858;2023-04-05T00:05:54;10.50;;;3.97;;
23123;SDS011;11731;48.592;8.858;2023-04-05T00:11:38;4.23;;;3.50;;
23123;SDS011;11731;48.592;8.858;2023-04-05T00:14:05;3.80;;;3.40;;
23123;SDS011;11731;48.592;8.858;2023-04-05T00:17:34;4.97;;;3.67;;
23123;SDS011;11731;48.592;8.858;2023-04-05T00:22:55;5.03;;;3.60;;
23123;SDS011;11731;48.592;8.858;2023-04-05T00:28:03;5.73;;;3.50;;
23123;SDS011;11731;48.592;8.858;2023-04-05T00:30:30;7.17;;;3.53;;
23123;SDS011;11731;48.592;8.858;2023-04-05T00:33:31;6.27;;;4.00;;
23123;SDS011;11731;48.592;8.858;2023-04-05T00:35:50;5.00;;;3.50;;
23123;SDS011;11731;48.592;8.858;2023-04-05T00:38:20;9.50;;;3.97;;
23123;SDS011;11731;48.592;8.858;2023-04-05T00:40:47;5.93;;;4.10;;
23123;SDS011;11731;48.592;8.858;2023-04-05T00:43:16;4.13;;;3.70;;
23123;SDS011;11731;48.592;8.858;2023-04-05T00:48:49;5.10;;;3.83;;
23123;SDS011;11731;48.592;8.858;2023-04-05T00:51:16;5.77;;;3.87;;
23123;SDS011;11731;48.592;8.858;2023-04-05T00:53:45;6.17;;;3.77;;
23123;SDS011;11731;48.592;8.858;2023-04-05T00:56:16;5.57;;;3.83;;
23123;SDS011;11731;48.592;8.858;2023-04-05T00:58:45;6.03;;;3.53;;
23123;SDS011;11731;48.592;8.858;2023-04-05T01:01:13;6.47;;;3.60;;
23123;SDS011;11731;48.592;8.858;2023-04-05T01:03:48;4.97;;;3.70;;
23123;SDS011;11731;48.592;8.858;2023-04-05T01:06:56;5.97;;;3.97;;
23123;SDS011;11731;48.592;8.858;2023-04-05T01:09:34;5.73;;;3.60;;
23123;SDS011;11731;48.592;8.858;2023-04-05T01:12:10;5.13;;;3.80;;
23123;SDS011;11731;48.592;8.858;2023-04-05T01:14:43;5.23;;;3.90;;
23123;SDS011;11731;48.592;8.858;2023-04-05T01:17:16;6.40;;;3.90;;
23123;SDS011;11731;48.592;8.858;2023-04-05T01:19:46;4.33;;;3.50;;
23123;SDS011;11731;48.592;8.858;2023-04-05T01:22:31;6.40;;;4.20;;
23123;SDS011;11731;48.592;8.858;2023-04-05T01:29:03;6.00;;;3.80;;
23123;SDS011;11731;48.592;8.858;2023-04-05T01:35:08;5.33;;;4.23;;
23123;SDS011;11731;48.592;8.858;2023-04-05T01:40:42;5.37;;;4.17;;
23123;SDS011;11731;48.592;8.858;2023-04-05T01:43:12;5.20;;;3.83;;
23123;SDS011;11731;48.592;8.858;2023-04-05T01:45:45;5.60;;;4.10;;
23123;SDS011;11731;48.592;8.858;2023-04-05T01:48:12;6.67;;;3.90;;
23123;SDS011;11731;48.592;8.858;2023-04-05T01:50:41;6.23;;;4.57;;
23123;SDS011;11731;48.592;8.858;2023-04-05T01:53:22;4.77;;;4.03;;
23123;SDS011;11731;48.592;8.858;2023-04-05T01:55:48;5.17;;;4.20;;
23123;SDS011;11731;48.592;8.858;2023-04-05T01:58:15;4.87;;;4.10;;
23123;SDS011;11731;48.592;8.858;2023-04-05T02:00:42;7.67;;;4.67;;
23123;SDS011;11731;48.592;8.858;2023-04-05T02:03:09;5.43;;;4.53;;
23123;SDS011;11731;48.592;8.858;2023-04-05T02:05:36;5.87;;;4.23;;
23123;SDS011;11731;48.592;8.858;2023-04-05T02:08:26;4.87;;;3.83;;
23123;SDS011;11731;48.592;8.858;2023-04-05T02:10:53;4.93;;;4.00;;
23123;SDS011;11731;48.592;8.858;2023-04-05T02:13:20;8.67;;;3.80;;
23123;SDS011;11731;48.592;8.858;2023-04-05T02:16:01;6.53;;;4.20;;
23123;SDS011;11731;48.592;8.858;2023-04-05T02:18:28;4.83;;;3.77;;
23123;SDS011;11731;48.592;8.858;2023-04-05T02:21:02;5.73;;;3.73;;
23123;SDS011;11731;48.592;8.858;2023-04-05T02:23:48;6.30;;;3.87;;
23123;SDS011;11731;48.592;8.858;2023-04-05T02:26:15;5.33;;;3.87;;
23123;SDS011;11731;48.592;8.858;2023-04-05T02:28:42;6.63;;;4.33;;
23123;SDS011;11731;48.592;8.858;2023-04-05T02:31:09;4.77;;;4.20;;
23123;SDS011;11731;48.592;8.858;2023-04-05T02:33:36;4.63;;;3.83;;
23123;SDS011;11731;48.592;8.858;2023-04-05T02:36:10;5.00;;;3.87;;
23123;SDS011;11731;48.592;8.858;2023-04-05T02:39:02;4.23;;;3.80;;
23123;SDS011;11731;48.592;8.858;2023-04-05T02:41:29;5.87;;;3.90;;
23123;SDS011;11731;48.592;8.858;2023-04-05T02:44:18;5.53;;;4.00;;
23123;SDS011;11731;48.592;8.858;2023-04-05T02:46:47;4.70;;;3.93;;
23123;SDS011;11731;48.592;8.858;2023-04-05T02:52:34;5.80;;;4.20;;
23123;SDS011;11731;48.592;8.858;2023-04-05T02:55:03;7.73;;;4.80;;
23123;SDS011;11731;48.592;8.858;2023-04-05T02:57:30;9.57;;;4.67;;
23123;SDS011;11731;48.592;8.858;2023-04-05T02:59:57;8.50;;;4.80;;
23123;SDS011;11731;48.592;8.858;2023-04-05T03:02:24;6.97;;;5.07;;
23123;SDS011;11731;48.592;8.858;2023-04-05T03:04:52;7.03;;;4.87;;
23123;SDS011;11731;48.592;8.858;2023-04-05T03:07:52;9.13;;;5.70;;
23123;SDS011;11731;48.592;8.858;2023-04-05T03:10:32;11.37;;;5.83;;
23123;SDS011;11731;48.592;8.858;2023-04-05T03:13:03;8.17;;;5.00;;
23123;SDS011;11731;48.592;8.858;2023-04-05T03:15:30;9.07;;;5.57;;
23123;SDS011;11731;48.592;8.858;2023-04-05T03:17:57;7.83;;;5.43;;
23123;SDS011;11731;48.592;8.858;2023-04-05T03:20:30;4.80;;;3.90;;
23123;SDS011;11731;48.592;8.858;2023-04-05T03:23:20;5.77;;;4.70;;
23123;SDS011;11731;48.592;8.858;2023-04-05T03:25:53;8.43;;;4.27;;
23123;SDS011;11731;48.592;8.858;2023-04-05T03:28:21;8.33;;;5.27;;
23123;SDS011;11731;48.592;8.858;2023-04-05T03:30:48;9.33;;;5.07;;
23123;SDS011;11731;48.592;8.858;2023-04-05T03:33:16;7.33;;;4.83;;
23123;SDS011;11731;48.592;8.858;2023-04-05T03:35:43;6.90;;;4.20;;
23123;SDS011;11731;48.592;8.858;2023-04-05T03:38:10;9.40;;;4.97;;
23123;SDS011;11731;48.592;8.858;2023-04-05T03:41:23;7.40;;;4.93;;
23123;SDS011;11731;48.592;8.858;2023-04-05T03:43:50;7.27;;;5.07;;
23123;SDS011;11731;48.592;8.858;2023-04-05T03:46:48;6.03;;;4.50;;
23123;SDS011;11731;48.592;8.858;2023-04-05T03:49:11;6.53;;;4.27;;
23123;SDS011;11731;48.592;8.858;2023-04-05T03:51:38;6.90;;;5.03;;
23123;SDS011;11731;48.592;8.858;2023-04-05T03:54:05;5.63;;;4.23;;
23123;SDS011;11731;48.592;8.858;2023-04-05T03:56:36;8.60;;;4.63;;
23123;SDS011;11731;48.592;8.858;2023-04-05T04:05:18;4.20;;;3.43;;
23123;SDS011;11731;48.592;8.858;2023-04-05T04:07:45;5.93;;;4.17;;
23123;SDS011;11731;48.592;8.858;2023-04-05T04:10:13;7.07;;;4.50;;
23123;SDS011;11731;48.592;8.858;2023-04-05T04:12:47;4.73;;;3.60;;
23123;SDS011;11731;48.592;8.858;2023-04-05T04:21:45;6.73;;;4.30;;
23123;SDS011;11731;48.592;8.858;2023-04-05T04:24:16;4.87;;;4.10;;
23123;SDS011;11731;48.592;8.858;2023-04-05T04:26:46;5.93;;;3.97;;
23123;SDS011;11731;48.592;8.858;2023-04-05T04:29:13;5.93;;;4.33;;
23123;SDS011;11731;48.592;8.858;2023-04-05T04:31:41;7.87;;;4.50;;
23123;SDS011;11731;48.592;8.858;2023-04-05T04:34:23;8.47;;;4.50;;
23123;SDS011;11731;48.592;8.858;2023-04-05T04:39:43;7.50;;;4.63;;
23123;SDS011;11731;48.592;8.858;2023-04-05T04:45:24;7.53;;;4.47;;
23123;SDS011;11731;48.592;8.858;2023-04-05T04:48:05;7.80;;;4.40;;
23123;SDS011;11731;48.592;8.858;2023-04-05T04:50:33;7.67;;;5.20;;
23123;SDS011;11731;48.592;8.858;2023-04-05T04:56:11;6.10;;;4.43;;
23123;SDS011;11731;48.592;8.858;2023-04-05T04:58:40;5.40;;;4.20;;
23123;SDS011;11731;48.592;8.858;2023-04-05T05:01:07;6.77;;;4.73;;
23123;SDS011;11731;48.592;8.858;2023-04-05T05:03:35;5.07;;;4.43;;
23123;SDS011;11731;48.592;8.858;2023-04-05T05:06:02;6.50;;;4.70;;
23123;SDS011;11731;48.592;8.858;2023-04-05T05:08:31;4.90;;;4.40;;
23123;SDS011;11731;48.592;8.858;2023-04-05T05:11:12;5.93;;;4.80;;
23123;SDS011;11731;48.592;8.858;2023-04-05T05:13:40;6.30;;;4.60;;
23123;SDS011;11731;48.592;8.858;2023-04-05T05:18:51;5.93;;;4.50;;
23123;SDS011;11731;48.592;8.858;2023-04-05T05:21:18;5.63;;;4.50;;
23123;SDS011;11731;48.592;8.858;2023-04-05T05:24:01;7.90;;;4.63;;
23123;SDS011;11731;48.592;8.858;2023-04-05T05:29:40;6.33;;;4.37;;
23123;SDS011;11731;48.592;8.858;2023-04-05T05:32:07;7.13;;;4.67;;
23123;SDS011;11731;48.592;8.858;2023-04-05T05:34:38;5.20;;;4.43;;
23123;SDS011;11731;48.592;8.858;2023-04-05T05:37:09;6.10;;;4.33;;
23123;SDS011;11731;48.592;8.858;2023-04-05T05:39:36;6.57;;;4.93;;
23123;SDS011;11731;48.592;8.858;2023-04-05T05:42:37;7.33;;;4.63;;
23123;SDS011;11731;48.592;8.858;2023-04-05T05:45:06;6.07;;;4.47;;
23123;SDS011;11731;48.592;8.858;2023-04-05T05:47:33;6.97;;;4.73;;
23123;SDS011;11731;48.592;8.858;2023-04-05T05:53:20;6.17;;;4.23;;
23123;SDS011;11731;48.592;8.858;2023-04-05T05:55:47;5.77;;;4.37;;
23123;SDS011;11731;48.592;8.858;2023-04-05T05:58:17;6.00;;;4.60;;
23123;SDS011;11731;48.592;8.858;2023-04-05T06:00:45;9.07;;;4.27;;
23123;SDS011;11731;48.592;8.858;2023-04-05T06:03:12;7.50;;;4.67;;
23123;SDS011;11731;48.592;8.858;2023-04-05T06:05:41;5.57;;;4.47;;
23123;SDS011;11731;48.592;8.858;2023-04-05T06:08:16;5.53;;;4.20;;
23123;SDS011;11731;48.592;8.858;2023-04-05T06:10:44;7.93;;;4.93;;
23123;SDS011;11731;48.592;8.858;2023-04-05T06:13:11;7.97;;;4.43;;
23123;SDS011;11731;48.592;8.858;2023-04-05T06:18:06;6.20;;;4.60;;
23123;SDS011;11731;48.592;8.858;2023-04-05T06:20:33;6.47;;;4.90;;
23123;SDS011;11731;48.592;8.858;2023-04-05T06:23:04;6.50;;;4.70;;
23123;SDS011;11731;48.592;8.858;2023-04-05T06:25:31;8.50;;;4.67;;
23123;SDS011;11731;48.592;8.858;2023-04-05T06:27:58;5.77;;;4.73;;
23123;SDS011;11731;48.592;8.858;2023-04-05T06:30:25;7.03;;;5.07;;
23123;SDS011;11731;48.592;8.858;2023-04-05T06:32:52;8.43;;;4.87;;
23123;SDS011;11731;48.592;8.858;2023-04-05T06:35:23;6.00;;;4.80;;
23123;SDS011;11731;48.592;8.858;2023-04-05T06:37:50;6.40;;;5.00;;
23123;SDS011;11731;48.592;8.858;2023-04-05T06:40:19;8.00;;;4.70;;
23123;SDS011;11731;48.592;8.858;2023-04-05T06:42:51;7.40;;;4.37;;
23123;SDS011;11731;48.592;8.858;2023-04-05T06:45:18;6.00;;;4.73;;
23123;SDS011;11731;48.592;8.858;2023-04-05T06:48:03;5.30;;;4.57;;
23123;SDS011;11731;48.592;8.858;2023-04-05T06:53:43;5.70;;;4.40;;
23123;SDS011;11731;48.592;8.858;2023-04-05T06:57:13;7.20;;;4.93;;
23123;SDS011;11731;48.592;8.858;2023-04-05T06:59:16;6.87;;;4.60;;
23123;SDS011;11731;48.592;8.858;2023-04-05T07:01:51;7.20;;;4.60;;
23123;SDS011;11731;48.592;8.858;2023-04-05T07:04:18;5.27;;;4.77;;
23123;SDS011;11731;48.592;8.858;2023-04-05T07:06:46;5.83;;;4.90;;
23123;SDS011;11731;48.592;8.858;2023-04-05T07:09:13;10.50;;;5.30;;
23123;SDS011;11731;48.592;8.858;2023-04-05T07:11:54;7.20;;;5.97;;
23123;SDS011;11731;48.592;8.858;2023-04-05T07:14:32;7.67;;;5.13;;
23123;SDS011;11731;48.592;8.858;2023-04-05T07:17:01;7.67;;;5.47;;
23123;SDS011;11731;48.592;8.858;2023-04-05T07:19:30;6.97;;;4.90;;
23123;SDS011;11731;48.592;8.858;2023-04-05T07:21:58;9.93;;;5.40;;
23123;SDS011;11731;48.592;8.858;2023-04-05T07:24:25;7.10;;;5.70;;
23123;SDS011;11731;48.592;8.858;2023-04-05T07:26:52;9.47;;;5.53;;
23123;SDS011;11731;48.592;8.858;2023-04-05T07:29:19;6.27;;;5.20;;
23123;SDS011;11731;48.592;8.858;2023-04-05T07:31:46;7.67;;;5.70;;
23123;SDS011;11731;48.592;8.858;2023-04-05T07:34:13;6.90;;;5.33;;
23123;SDS011;11731;48.592;8.858;2023-04-05T07:36:40;7.37;;;5.10;;
23123;SDS011;11731;48.592;8.858;2023-04-05T07:39:08;9.83;;;5.70;;
23123;SDS011;11731;48.592;8.858;2023-04-05T07:41:35;7.00;;;5.40;;
23123;SDS011;11731;48.592;8.858;2023-04-05T07:44:02;7.80;;;6.17;;
23123;SDS011;11731;48.592;8.858;2023-04-05T07:46:29;10.03;;;6.27;;
23123;SDS011;11731;48.592;8.858;2023-04-05T07:48:56;9.90;;;5.73;;
23123;SDS011;11731;48.592;8.858;2023-04-05T07:51:23;10.77;;;5.23;;
23123;SDS011;11731;48.592;8.858;2023-04-05T07:53:51;9.10;;;5.97;;
23123;SDS011;11731;48.592;8.858;2023-04-05T07:56:19;7.17;;;5.37;;
23123;SDS011;11731;48.592;8.858;2023-04-05T07:58:47;6.50;;;5.37;;
23123;SDS011;11731;48.592;8.858;2023-04-05T08:01:15;6.30;;;5.23;;
23123;SDS011;11731;48.592;8.858;2023-04-05T08:04:03;6.43;;;5.07;;
23123;SDS011;11731;48.592;8.858;2023-04-05T08:09:31;5.27;;;4.73;;
23123;SDS011;11731;48.592;8.858;2023-04-05T08:11:59;5.87;;;4.87;;
23123;SDS011;11731;48.592;8.858;2023-04-05T08:14:26;7.37;;;5.00;;
23123;SDS011;11731;48.592;8.858;2023-04-05T08:16:53;7.87;;;5.20;;
23123;SDS011;11731;48.592;8.858;2023-04-05T08:19:20;5.90;;;4.80;;
23123;SDS011;11731;48.592;8.858;2023-04-05T08:21:47;6.03;;;4.47;;
23123;SDS011;11731;48.592;8.858;2023-04-05T08:24:14;7.37;;;5.07;;
23123;SDS011;11731;48.592;8.858;2023-04-05T08:26:41;5.83;;;4.50;;
23123;SDS011;11731;48.592;8.858;2023-04-05T08:29:09;6.10;;;4.30;;
23123;SDS011;11731;48.592;8.858;2023-04-05T08:31:36;6.07;;;4.40;;
23123;SDS011;11731;48.592;8.858;2023-04-05T08:34:03;5.60;;;4.80;;
23123;SDS011;11731;48.592;8.858;2023-04-05T08:36:32;5.53;;;4.03;;
23123;SDS011;11731;48.592;8.858;2023-04-05T08:38:59;6.93;;;4.43;;
23123;SDS011;11731;48.592;8.858;2023-04-05T08:41:26;6.87;;;4.23;;
23123;SDS011;11731;48.592;8.858;2023-04-05T08:44:00;6.83;;;4.23;;
23123;SDS011;11731;48.592;8.858;2023-04-05T08:46:31;7.87;;;4.70;;
23123;SDS011;11731;48.592;8.858;2023-04-05T08:48:59;5.10;;;4.10;;
23123;SDS011;11731;48.592;8.858;2023-04-05T08:51:32;4.77;;;3.60;;
23123;SDS011;11731;48.592;8.858;2023-04-05T08:54:03;4.93;;;4.03;;
23123;SDS011;11731;48.592;8.858;2023-04-05T08:56:31;5.23;;;3.60;;
23123;SDS011;11731;48.592;8.858;2023-04-05T08:59:01;5.40;;;3.70;;
23123;SDS011;11731;48.592;8.858;2023-04-05T09:01:31;4.97;;;3.70;;
23123;SDS011;11731;48.592;8.858;2023-04-05T09:03:59;5.73;;;3.93;;
23123;SDS011;11731;48.592;8.858;2023-04-05T09:06:35;8.27;;;3.80;;
23123;SDS011;11731;48.592;8.858;2023-04-05T09:09:37;7.63;;;3.97;;
23123;SDS011;11731;48.592;8.858;2023-04-05T09:12:09;8.97;;;4.10;;
23123;SDS011;11731;48.592;8.858;2023-04-05T09:14:36;5.80;;;4.07;;
23123;SDS011;11731;48.592;8.858;2023-04-05T09:17:05;6.17;;;4.33;;
23123;SDS011;11731;48.592;8.858;2023-04-05T09:19:32;4.80;;;3.77;;
23123;SDS011;11731;48.592;8.858;2023-04-05T09:21:59;4.40;;;3.67;;
23123;SDS011;11731;48.592;8.858;2023-04-05T09:24:31;4.53;;;3.97;;
23123;SDS011;11731;48.592;8.858;2023-04-05T09:27:05;5.57;;;3.90;;
23123;SDS011;11731;48.592;8.858;2023-04-05T09:29:33;6.47;;;4.00;;
23123;SDS011;11731;48.592;8.858;2023-04-05T09:32:01;5.50;;;4.47;;
23123;SDS011;11731;48.592;8.858;2023-04-05T09:34:30;4.57;;;3.90;;
23123;SDS011;11731;48.592;8.858;2023-04-05T09:36:58;6.17;;;3.90;;
23123;SDS011;11731;48.592;8.858;2023-04-05T09:39:28;4.60;;;3.57;;
23123;SDS011;11731;48.592;8.858;2023-04-05T09:42:06;7.03;;;3.90;;
23123;SDS011;11731;48.592;8.858;2023-04-05T09:44:49;7.17;;;3.73;;
23123;SDS011;11731;48.592;8.858;2023-04-05T09:47:17;5.57;;;3.90;;
23123;SDS011;11731;48.592;8.858;2023-04-05T09:49:47;4.77;;;3.83;;
23123;SDS011;11731;48.592;8.858;2023-04-05T09:52:20;5.00;;;3.67;;
23123;SDS011;11731;48.592;8.858;2023-04-05T09:54:57;5.13;;;3.17;;
23123;SDS011;11731;48.592;8.858;2023-04-05T09:57:25;4.73;;;3.70;;
23123;SDS011;11731;48.592;8.858;2023-04-05T09:59:53;3.47;;;3.13;;
23123;SDS011;11731;48.592;8.858;2023-04-05T10:02:20;5.40;;;3.40;;
23123;SDS011;11731;48.592;8.858;2023-04-05T10:04:49;4.37;;;3.53;;
23123;SDS011;11731;48.592;8.858;2023-04-05T10:07:17;5.27;;;3.47;;
23123;SDS011;11731;48.592;8.858;2023-04-05T10:09:45;3.73;;;3.43;;
23123;SDS011;11731;48.592;8.858;2023-04-05T10:12:15;6.30;;;3.47;;
23123;SDS011;11731;48.592;8.858;2023-04-05T10:14:48;3.67;;;3.27;;
23123;SDS011;11731;48.592;8.858;2023-04-05T10:17:15;5.00;;;3.47;;
23123;SDS011;11731;48.592;8.858;2023-04-05T10:20:01;5.83;;;3.33;;
23123;SDS011;11731;48.592;8.858;2023-04-05T10:22:39;4.67;;;3.40;;
23123;SDS011;11731;48.592;8.858;2023-04-05T10:26:23;9.67;;;4.00;;
23123;SDS011;11731;48.592;8.858;2023-04-05T10:28:49;5.93;;;3.80;;
23123;SDS011;11731;48.592;8.858;2023-04-05T10:31:21;5.10;;;3.80;;
23123;SDS011;11731;48.592;8.858;2023-04-05T10:33:54;5.13;;;3.53;;
23123;SDS011;11731;48.592;8.858;2023-04-05T10:36:41;6.30;;;4.00;;
23123;SDS011;11731;48.592;8.858;2023-04-05T10:39:12;3.83;;;3.40;;
23123;SDS011;11731;48.592;8.858;2023-04-05T10:45:03;5.60;;;3.67;;
23123;SDS011;11731;48.592;8.858;2023-04-05T10:48:00;4.77;;;3.30;;
23123;SDS011;11731;48.592;8.858;2023-04-05T10:50:46;5.27;;;3.53;;
23123;SDS011;11731;48.592;8.858;2023-04-05T10:53:15;5.17;;;3.67;;
23123;SDS011;11731;48.592;8.858;2023-04-05T10:55:45;4.03;;;3.63;;
23123;SDS011;11731;48.592;8.858;2023-04-05T10:58:13;4.97;;;3.70;;
23123;SDS011;11731;48.592;8.858;2023-04-05T11:00:41;4.17;;;3.27;;
23123;SDS011;11731;48.592;8.858;2023-04-05T11:03:09;4.40;;;3.73;;
23123;SDS011;11731;48.592;8.858;2023-04-05T11:08:59;4.07;;;3.63;;
23123;SDS011;11731;48.592;8.858;2023-04-05T11:11:42;5.33;;;3.70;;
23123;SDS011;11731;48.592;8.858;2023-04-05T11:14:17;4.90;;;3.57;;
23123;SDS011;11731;48.592;8.858;2023-04-05T11:16:46;4.03;;;3.33;;
23123;SDS011;11731;48.592;8.858;2023-04-05T11:19:15;6.13;;;3.77;;
23123;SDS011;11731;48.592;8.858;2023-04-05T11:21:42;5.07;;;3.57;;
23123;SDS011;11731;48.592;8.858;2023-04-05T11:24:11;4.67;;;3.17;;
23123;SDS011;11731;48.592;8.858;2023-04-05T11:26:53;4.73;;;3.70;;
23123;SDS011;11731;48.592;8.858;2023-04-05T11:32:14;5.23;;;3.30;;
23123;SDS011;11731;48.592;8.858;2023-04-05T11:34:41;4.07;;;3.67;;
23123;SDS011;11731;48.592;8.858;2023-04-05T11:37:09;5.03;;;4.20;;
23123;SDS011;11731;48.592;8.858;2023-04-05T11:39:38;3.97;;;3.37;;
23123;SDS011;11731;48.592;8.858;2023-04-05T11:42:06;6.60;;;3.70;;
23123;SDS011;11731;48.592;8.858;2023-04-05T11:44:40;3.50;;;3.20;;
23123;SDS011;11731;48.592;8.858;2023-04-05T11:47:08;3.90;;;3.30;;
23123;SDS011;11731;48.592;8.858;2023-04-05T11:49:36;3.37;;;2.80;;
23123;SDS011;11731;48.592;8.858;2023-04-05T11:52:10;4.93;;;3.60;;
23123;SDS011;11731;48.592;8.858;2023-04-05T11:54:41;5.33;;;3.90;;
23123;SDS011;11731;48.592;8.858;2023-04-05T11:57:13;4.00;;;3.60;;
23123;SDS011;11731;48.592;8.858;2023-04-05T11:59:41;4.30;;;3.50;;
23123;SDS011;11731;48.592;8.858;2023-04-05T12:02:09;3.77;;;3.43;;
23123;SDS011;11731;48.592;8.858;2023-04-05T12:04:36;5.00;;;3.60;;
23123;SDS011;11731;48.592;8.858;2023-04-05T12:07:10;4.37;;;3.63;;
23123;SDS011;11731;48.592;8.858;2023-04-05T12:12:27;5.53;;;3.53;;
23123;SDS011;11731;48.592;8.858;2023-04-05T12:14:58;3.77;;;3.27;;
23123;SDS011;11731;48.592;8.858;2023-04-05T12:20:09;5.57;;;3.53;;
23123;SDS011;11731;48.592;8.858;2023-04-05T12:22:37;4.90;;;2.97;;
23123;SDS011;11731;48.592;8.858;2023-04-05T12:25:07;4.10;;;3.47;;
23123;SDS011;11731;48.592;8.858;2023-04-05T12:27:35;3.73;;;3.43;;
23123;SDS011;11731;48.592;8.858;2023-04-05T12:30:07;4.53;;;3.43;;
23123;SDS011;11731;48.592;8.858;2023-04-05T12:32:42;4.37;;;3.53;;
23123;SDS011;11731;48.592;8.858;2023-04-05T12:35:11;4.00;;;3.53;;
23123;SDS011;11731;48.592;8.858;2023-04-05T12:37:41;4.87;;;4.20;;
23123;SDS011;11731;48.592;8.858;2023-04-05T12:40:10;4.00;;;3.60;;
23123;SDS011;11731;48.592;8.858;2023-04-05T12:42:38;4.70;;;3.53;;
23123;SDS011;11731;48.592;8.858;2023-04-05T12:45:08;3.30;;;3.00;;
23123;SDS011;11731;48.592;8.858;2023-04-05T12:47:46;4.53;;;3.70;;
23123;SDS011;11731;48.592;8.858;2023-04-05T12:50:15;4.40;;;3.60;;
23123;SDS011;11731;48.592;8.858;2023-04-05T12:52:56;5.17;;;3.43;;
23123;SDS011;11731;48.592;8.858;2023-04-05T12:55:27;4.07;;;3.40;;
23123;SDS011;11731;48.592;8.858;2023-04-05T12:57:54;4.37;;;3.60;;
23123;SDS011;11731;48.592;8.858;2023-04-05T13:00:25;5.13;;;3.60;;
23123;SDS011;11731;48.592;8.858;2023-04-05T13:02:54;3.90;;;3.23;;
23123;SDS011;11731;48.592;8.858;2023-04-05T13:05:24;3.90;;;3.40;;
23123;SDS011;11731;48.592;8.858;2023-04-05T13:08:06;4.73;;;3.53;;
23123;SDS011;11731;48.592;8.858;2023-04-05T13:10:42;4.63;;;3.63;;
23123;SDS011;11731;48.592;8.858;2023-04-05T13:13:10;5.03;;;3.40;;
23123;SDS011;11731;48.592;8.858;2023-04-05T13:18:06;3.80;;;3.40;;
23123;SDS011;11731;48.592;8.858;2023-04-05T13:20:35;3.73;;;3.10;;
23123;SDS011;11731;48.592;8.858;2023-04-05T13:23:02;4.50;;;4.00;;
23123;SDS011;11731;48.592;8.858;2023-04-05T13:25:36;4.83;;;3.80;;
23123;SDS011;11731;48.592;8.858;2023-04-05T13:28:03;3.83;;;3.47;;
23123;SDS011;11731;48.592;8.858;2023-04-05T13:30:30;3.33;;;3.03;;
23123;SDS011;11731;48.592;8.858;2023-04-05T13:32:57;4.27;;;3.70;;
23123;SDS011;11731;48.592;8.858;2023-04-05T13:35:24;4.70;;;3.77;;
23123;SDS011;11731;48.592;8.858;2023-04-05T13:37:51;5.00;;;4.00;;
23123;SDS011;11731;48.592;8.858;2023-04-05T13:40:17;5.17;;;3.67;;
23123;SDS011;11731;48.592;8.858;2023-04-05T13:42:46;4.30;;;3.90;;
23123;SDS011;11731;48.592;8.858;2023-04-05T13:46:29;5.17;;;3.67;;
23123;SDS011;11731;48.592;8.858;2023-04-05T13:48:46;4.63;;;4.00;;
23123;SDS011;11731;48.592;8.858;2023-04-05T13:51:12;5.40;;;3.67;;
23123;SDS011;11731;48.592;8.858;2023-04-05T13:53:40;5.00;;;4.00;;
23123;SDS011;11731;48.592;8.858;2023-04-05T13:56:09;4.63;;;3.60;;
23123;SDS011;11731;48.592;8.858;2023-04-05T13:58:41;4.37;;;3.87;;
23123;SDS011;11731;48.592;8.858;2023-04-05T14:01:14;4.23;;;3.70;;
23123;SDS011;11731;48.592;8.858;2023-04-05T14:03:41;5.73;;;3.60;;
23123;SDS011;11731;48.592;8.858;2023-04-05T14:06:08;4.53;;;3.80;;
23123;SDS011;11731;48.592;8.858;2023-04-05T14:09:09;4.43;;;4.03;;
23123;SDS011;11731;48.592;8.858;2023-04-05T14:20:15;4.43;;;3.83;;
23123;SDS011;11731;48.592;8.858;2023-04-05T14:22:55;4.27;;;3.50;;
23123;SDS011;11731;48.592;8.858;2023-04-05T14:25:22;3.37;;;3.07;;
23123;SDS011;11731;48.592;8.858;2023-04-05T14:28:02;4.13;;;3.60;;
23123;SDS011;11731;48.592;8.858;2023-04-05T14:30:30;5.47;;;3.03;;
23123;SDS011;11731;48.592;8.858;2023-04-05T14:32:57;3.60;;;3.10;;
23123;SDS011;11731;48.592;8.858;2023-04-05T14:39:03;3.47;;;3.10;;
23123;SDS011;11731;48.592;8.858;2023-04-05T14:41:31;3.67;;;3.30;;
23123;SDS011;11731;48.592;8.858;2023-04-05T14:43:58;5.73;;;3.10;;
23123;SDS011;11731;48.592;8.858;2023-04-05T14:46:27;4.20;;;3.47;;
23123;SDS011;11731;48.592;8.858;2023-04-05T14:49:00;3.67;;;3.00;;
23123;SDS011;11731;48.592;8.858;2023-04-05T14:51:57;3.43;;;2.87;;
23123;SDS011;11731;48.592;8.858;2023-04-05T14:55:27;3.63;;;3.07;;
23123;SDS011;11731;48.592;8.858;2023-04-05T14:57:44;5.00;;;3.40;;
23123;SDS011;11731;48.592;8.858;2023-04-05T15:00:50;3.87;;;3.47;;
23123;SDS011;11731;48.592;8.858;2023-04-05T15:03:18;6.53;;;3.43;;
23123;SDS011;11731;48.592;8.858;2023-04-05T15:05:45;3.33;;;2.90;;
23123;SDS011;11731;48.592;8.858;2023-04-05T15:08:14;5.50;;;3.20;;
23123;SDS011;11731;48.592;8.858;2023-04-05T15:10:41;5.93;;;3.27;;
23123;SDS011;11731;48.592;8.858;2023-04-05T15:14:11;4.87;;;3.43;;
23123;SDS011;11731;48.592;8.858;2023-04-05T15:16:11;5.33;;;3.70;;
23123;SDS011;11731;48.592;8.858;2023-04-05T15:27:51;5.63;;;3.43;;
23123;SDS011;11731;48.592;8.858;2023-04-05T15:30:19;3.90;;;3.17;;
23123;SDS011;11731;48.592;8.858;2023-04-05T15:32:46;3.60;;;3.30;;
23123;SDS011;11731;48.592;8.858;2023-04-05T15:35:14;3.63;;;3.30;;
23123;SDS011;11731;48.592;8.858;2023-04-05T15:41:24;7.73;;;3.77;;
23123;SDS011;11731;48.592;8.858;2023-04-05T15:44:05;3.63;;;3.33;;
23123;SDS011;11731;48.592;8.858;2023-04-05T15:46:46;4.73;;;3.70;;
23123;SDS011;11731;48.592;8.858;2023-04-05T15:49:13;3.53;;;3.23;;
23123;SDS011;11731;48.592;8.858;2023-04-05T15:55:00;4.97;;;3.30;;
23123;SDS011;11731;48.592;8.858;2023-04-05T16:00:17;4.87;;;3.37;;
23123;SDS011;11731;48.592;8.858;2023-04-05T16:02:45;4.50;;;3.57;;
23123;SDS011;11731;48.592;8.858;2023-04-05T16:05:12;4.60;;;3.50;;
23123;SDS011;11731;48.592;8.858;2023-04-05T16:14:20;6.20;;;3.87;;
23123;SDS011;11731;48.592;8.858;2023-04-05T16:17:50;5.23;;;3.77;;
23123;SDS011;11731;48.592;8.858;2023-04-05T16:20:00;6.47;;;3.80;;
23123;SDS011;11731;48.592;8.858;2023-04-05T16:25:04;6.10;;;3.77;;
23123;SDS011;11731;48.592;8.858;2023-04-05T16:27:13;5.53;;;3.93;;
23123;SDS011;11731;48.592;8.858;2023-04-05T16:29:35;5.07;;;3.60;;
23123;SDS011;11731;48.592;8.858;2023-04-05T16:32:40;5.13;;;3.67;;
23123;SDS011;11731;48.592;8.858;2023-04-05T16:38:10;4.10;;;3.63;;
23123;SDS011;11731;48.592;8.858;2023-04-05T16:41:15;5.07;;;3.50;;
23123;SDS011;11731;48.592;8.858;2023-04-05T16:43:33;4.97;;;4.10;;
23123;SDS011;11731;48.592;8.858;2023-04-05T16:46:02;5.63;;;3.80;;
23123;SDS011;11731;48.592;8.858;2023-04-05T16:48:29;3.90;;;3.10;;
23123;SDS011;11731;48.592;8.858;2023-04-05T16:54:16;4.77;;;3.53;;
23123;SDS011;11731;48.592;8.858;2023-04-05T16:57:13;3.83;;;3.47;;
23123;SDS011;11731;48.592;8.858;2023-04-05T16:59:40;4.77;;;3.40;;
23123;SDS011;11731;48.592;8.858;2023-04-05T17:02:09;6.10;;;3.57;;
23123;SDS011;11731;48.592;8.858;2023-04-05T17:07:20;4.53;;;3.90;;
23123;SDS011;11731;48.592;8.858;2023-04-05T17:09:47;5.77;;;4.07;;
23123;SDS011;11731;48.592;8.858;2023-04-05T17:12:28;4.97;;;4.20;;
23123;SDS011;11731;48.592;8.858;2023-04-05T17:16:04;5.63;;;3.83;;
23123;SDS011;11731;48.592;8.858;2023-04-05T17:18:05;5.37;;;4.47;;
23123;SDS011;11731;48.592;8.858;2023-04-05T17:26:46;5.63;;;4.23;;
23123;SDS011;11731;48.592;8.858;2023-04-05T17:29:13;4.53;;;3.90;;
23123;SDS011;11731;48.592;8.858;2023-04-05T17:31:43;5.23;;;4.10;;
23123;SDS011;11731;48.592;8.858;2023-04-05T17:34:22;5.47;;;4.17;;
23123;SDS011;11731;48.592;8.858;2023-04-05T17:36:50;6.10;;;4.13;;
23123;SDS011;11731;48.592;8.858;2023-04-05T17:39:18;10.20;;;4.30;;